KSMD Airport (Smith Field) Information

FAA: SMD - ICAO: KSMD

KSMD Airport Location

State Indiana
County Allen
City Fort Wayne
KSMD Airport is 4 miles north of Fort Wayne, IN.
Latitude 41-08-36.1000N
Longitude 085-09-10.0000W
Elevation 835ft

KSMD Airport METARs

METAR KSMD 020015Z AUTO 19003KT 10SM CLR M05/M13 A3031 RMK A01
Altimeter 30.31"
Temperature -5.0°C (23.0°F)
Wind 190° at 3KT
Clouds Skies are clear.
Visibility 10.0mi
Time observed: 2023-02-02T00:15:00Z

KSMD Airport Details

Status Operational
Activation April 1940
Ownership Public
Usage Public
Chart CHICAGO
ATC on-site No
Beacon schedule sunset-sunrise
Beacon color clear green

KSMD Airport Contacts

Owner FT WAYNE ALLEN CO APT ATHRTY
Owner address LT. PAUL BAER-RM 209, FT WAYNE, IN 46809
Owner phone 260-747-4146
Manager BARRY PRUSS
Manager address 7153 STATE ROAD 62, DILLSBORO, IN 47018
Manager phone 812-926-3407

KSMD Airport (Smith Field) Radio Frequencies

KSMD (Airport) Radio Frequencies

UNICOM 122.8
Common traffic advisory frequency (CTAF) 122.8